sensor_id;sensor_type;location;lat;lon;timestamp;pressure;altitude;pressure_sealevel;temperature;humidity
78123;BME280;67376;44.802;10.332;2023-06-26T00:01:32;100946.84;;;28.96;38.63
78123;BME280;67376;44.802;10.332;2023-06-26T00:03:58;100943.28;;;28.96;38.74
78123;BME280;67376;44.802;10.332;2023-06-26T00:06:24;100946.84;;;28.96;38.76
78123;BME280;67376;44.802;10.332;2023-06-26T00:08:50;100944.41;;;28.95;38.18
78123;BME280;67376;44.802;10.332;2023-06-26T00:11:15;100947.69;;;28.97;39.21
78123;BME280;67376;44.802;10.332;2023-06-26T00:13:40;100944.41;;;28.95;38.42
78123;BME280;67376;44.802;10.332;2023-06-26T00:16:05;100952.66;;;28.95;39.03
78123;BME280;67376;44.802;10.332;2023-06-26T00:18:31;100947.16;;;28.95;38.27
78123;BME280;67376;44.802;10.332;2023-06-26T00:20:56;100947.97;;;28.95;38.48
78123;BME280;67376;44.802;10.332;2023-06-26T00:23:21;100942.47;;;28.95;38.44
78123;BME280;67376;44.802;10.332;2023-06-26T00:25:46;100939.72;;;28.95;38.92
78123;BME280;67376;44.802;10.332;2023-06-26T00:28:12;100938.06;;;28.94;39.33
78123;BME280;67376;44.802;10.332;2023-06-26T00:30:37;100942.75;;;28.93;38.74
78123;BME280;67376;44.802;10.332;2023-06-26T00:33:02;100941.94;;;28.93;38.77
78123;BME280;67376;44.802;10.332;2023-06-26T00:35:27;100944.69;;;28.93;38.94
78123;BME280;67376;44.802;10.332;2023-06-26T00:37:53;100941.13;;;28.92;38.79
78123;BME280;67376;44.802;10.332;2023-06-26T00:40:18;100955.41;;;28.95;38.50
78123;BME280;67376;44.802;10.332;2023-06-26T00:42:43;100955.69;;;28.93;38.47
78123;BME280;67376;44.802;10.332;2023-06-26T00:45:09;100958.44;;;28.93;38.51
78123;BME280;67376;44.802;10.332;2023-06-26T00:47:34;100955.69;;;28.93;38.76
78123;BME280;67376;44.802;10.332;2023-06-26T00:49:59;100962.28;;;28.92;39.11
78123;BME280;67376;44.802;10.332;2023-06-26T00:52:24;100960.34;;;28.92;39.51
78123;BME280;67376;44.802;10.332;2023-06-26T00:54:50;100955.97;;;28.91;38.95
78123;BME280;67376;44.802;10.332;2023-06-26T00:57:16;100949.66;;;28.91;38.57
78123;BME280;67376;44.802;10.332;2023-06-26T00:59:41;100958.72;;;28.91;38.43
78123;BME280;67376;44.802;10.332;2023-06-26T01:02:07;100950.75;;;28.90;38.70
78123;BME280;67376;44.802;10.332;2023-06-26T01:04:32;100955.44;;;28.89;38.86
78123;BME280;67376;44.802;10.332;2023-06-26T01:06:58;100962.88;;;28.89;39.28
78123;BME280;67376;44.802;10.332;2023-06-26T01:09:24;100954.63;;;28.89;39.48
78123;BME280;67376;44.802;10.332;2023-06-26T01:11:50;100957.69;;;28.87;39.17
78123;BME280;67376;44.802;10.332;2023-06-26T01:14:15;100956.53;;;28.88;39.41
78123;BME280;67376;44.802;10.332;2023-06-26T01:16:41;100964.00;;;28.88;39.02
78123;BME280;67376;44.802;10.332;2023-06-26T01:19:10;100961.53;;;28.86;39.19
78123;BME280;67376;44.802;10.332;2023-06-26T01:21:37;100949.44;;;28.87;39.29
78123;BME280;67376;44.802;10.332;2023-06-26T01:24:07;100945.88;;;28.87;39.51
78123;BME280;67376;44.802;10.332;2023-06-26T01:26:35;100952.19;;;28.87;39.52
78123;BME280;67376;44.802;10.332;2023-06-26T01:29:02;100954.13;;;28.87;39.08
78123;BME280;67376;44.802;10.332;2023-06-26T01:31:28;100951.38;;;28.87;39.15
78123;BME280;67376;44.802;10.332;2023-06-26T01:33:55;100942.31;;;28.86;39.42
78123;BME280;67376;44.802;10.332;2023-06-26T01:36:21;100944.22;;;28.86;39.59
78123;BME280;67376;44.802;10.332;2023-06-26T01:38:47;100948.09;;;28.85;39.24
78123;BME280;67376;44.802;10.332;2023-06-26T01:41:12;100945.34;;;28.85;39.44
78123;BME280;67376;44.802;10.332;2023-06-26T01:46:23;100945.34;;;28.85;39.42
78123;BME280;67376;44.802;10.332;2023-06-26T01:48:52;100945.34;;;28.85;39.26
78123;BME280;67376;44.802;10.332;2023-06-26T01:51:19;100945.63;;;28.83;39.12
78123;BME280;67376;44.802;10.332;2023-06-26T01:53:49;100944.81;;;28.83;39.39
78123;BME280;67376;44.802;10.332;2023-06-26T01:56:17;100943.69;;;28.84;39.20
78123;BME280;67376;44.802;10.332;2023-06-26T01:58:45;100948.91;;;28.85;39.85
78123;BME280;67376;44.802;10.332;2023-06-26T02:01:11;100950.84;;;28.85;39.64
78123;BME280;67376;44.802;10.332;2023-06-26T02:03:37;100953.59;;;28.85;39.41
78123;BME280;67376;44.802;10.332;2023-06-26T02:06:02;100951.66;;;28.85;38.82
78123;BME280;67376;44.802;10.332;2023-06-26T02:08:27;100957.16;;;28.85;39.76
78123;BME280;67376;44.802;10.332;2023-06-26T02:10:52;100949.19;;;28.84;39.42
78123;BME280;67376;44.802;10.332;2023-06-26T02:13:18;100953.03;;;28.83;39.65
78123;BME280;67376;44.802;10.332;2023-06-26T02:15:43;100951.94;;;28.84;39.68
78123;BME280;67376;44.802;10.332;2023-06-26T02:18:08;100955.78;;;28.83;39.45
78123;BME280;67376;44.802;10.332;2023-06-26T02:20:33;100952.22;;;28.82;38.92
78123;BME280;67376;44.802;10.332;2023-06-26T02:22:59;100954.97;;;28.82;39.10
78123;BME280;67376;44.802;10.332;2023-06-26T02:25:24;100958.53;;;28.83;39.41
78123;BME280;67376;44.802;10.332;2023-06-26T02:27:49;100956.63;;;28.83;39.64
78123;BME280;67376;44.802;10.332;2023-06-26T02:30:14;100957.16;;;28.80;39.19
78123;BME280;67376;44.802;10.332;2023-06-26T02:32:40;100962.41;;;28.82;38.88
78123;BME280;67376;44.802;10.332;2023-06-26T02:35:05;100959.38;;;28.83;39.86
78123;BME280;67376;44.802;10.332;2023-06-26T02:37:30;100960.72;;;28.81;39.05
78123;BME280;67376;44.802;10.332;2023-06-26T02:39:56;100964.59;;;28.80;39.85
78123;BME280;67376;44.802;10.332;2023-06-26T02:42:21;100961.56;;;28.81;39.74
78123;BME280;67376;44.802;10.332;2023-06-26T02:44:46;100969.78;;;28.81;39.04
78123;BME280;67376;44.802;10.332;2023-06-26T02:47:11;100967.91;;;28.82;39.49
78123;BME280;67376;44.802;10.332;2023-06-26T02:49:37;100965.41;;;28.80;39.25
78123;BME280;67376;44.802;10.332;2023-06-26T02:52:02;100958.81;;;28.81;39.44
78123;BME280;67376;44.802;10.332;2023-06-26T02:54:27;100954.16;;;28.82;39.12
78123;BME280;67376;44.802;10.332;2023-06-26T02:56:52;100959.91;;;28.80;39.96
78123;BME280;67376;44.802;10.332;2023-06-26T02:59:18;100959.91;;;28.80;39.10
78123;BME280;67376;44.802;10.332;2023-06-26T03:01:43;100961.84;;;28.80;39.97
78123;BME280;67376;44.802;10.332;2023-06-26T03:04:08;100955.28;;;28.76;39.25
78123;BME280;67376;44.802;10.332;2023-06-26T03:06:35;100958.03;;;28.76;39.97
78123;BME280;67376;44.802;10.332;2023-06-26T03:09:00;100954.97;;;28.77;39.11
78123;BME280;67376;44.802;10.332;2023-06-26T03:11:26;100962.13;;;28.78;39.82
78123;BME280;67376;44.802;10.332;2023-06-26T03:13:51;100948.09;;;28.80;39.14
78123;BME280;67376;44.802;10.332;2023-06-26T03:16:16;100957.97;;;28.81;39.59
78123;BME280;67376;44.802;10.332;2023-06-26T03:18:41;100956.34;;;28.80;39.98
78123;BME280;67376;44.802;10.332;2023-06-26T03:21:07;100964.59;;;28.80;39.46
78123;BME280;67376;44.802;10.332;2023-06-26T03:23:34;100967.34;;;28.80;40.26
78123;BME280;67376;44.802;10.332;2023-06-26T03:25:59;100960.72;;;28.81;39.95
78123;BME280;67376;44.802;10.332;2023-06-26T03:28:24;100963.47;;;28.81;39.64
78123;BME280;67376;44.802;10.332;2023-06-26T03:30:49;100967.63;;;28.78;39.76
78123;BME280;67376;44.802;10.332;2023-06-26T03:33:15;100964.06;;;28.78;39.83
78123;BME280;67376;44.802;10.332;2023-06-26T03:35:40;100971.47;;;28.77;39.47
78123;BME280;67376;44.802;10.332;2023-06-26T03:38:05;100974.22;;;28.77;39.64
78123;BME280;67376;44.802;10.332;2023-06-26T03:40:31;100969.28;;;28.74;40.43
78123;BME280;67376;44.802;10.332;2023-06-26T03:42:56;100969.84;;;28.76;40.01
78123;BME280;67376;44.802;10.332;2023-06-26T03:45:21;100977.78;;;28.78;40.21
78123;BME280;67376;44.802;10.332;2023-06-26T03:47:46;100982.19;;;28.79;39.90
78123;BME280;67376;44.802;10.332;2023-06-26T03:50:14;100984.94;;;28.79;40.24
78123;BME280;67376;44.802;10.332;2023-06-26T03:52:39;100978.63;;;28.78;39.63
78123;BME280;67376;44.802;10.332;2023-06-26T03:55:05;100978.63;;;28.78;40.13
78123;BME280;67376;44.802;10.332;2023-06-26T03:57:30;100976.44;;;28.75;39.97
78123;BME280;67376;44.802;10.332;2023-06-26T03:59:56;100973.44;;;28.72;40.18
78123;BME280;67376;44.802;10.332;2023-06-26T04:02:21;100980.31;;;28.69;40.49
78123;BME280;67376;44.802;10.332;2023-06-26T04:04:46;100986.31;;;28.76;39.81
78123;BME280;67376;44.802;10.332;2023-06-26T04:07:11;100986.34;;;28.71;39.75
78123;BME280;67376;44.802;10.332;2023-06-26T04:09:37;100986.78;;;28.49;40.79
78123;BME280;67376;44.802;10.332;2023-06-26T04:12:02;100991.19;;;28.45;41.12
78123;BME280;67376;44.802;10.332;2023-06-26T04:14:27;100985.72;;;28.45;41.12
78123;BME280;67376;44.802;10.332;2023-06-26T04:16:52;100995.31;;;27.88;42.08
78123;BME280;67376;44.802;10.332;2023-06-26T04:19:18;100995.66;;;27.72;42.77
78123;BME280;67376;44.802;10.332;2023-06-26T04:21:43;101001.72;;;27.53;43.15
78123;BME280;67376;44.802;10.332;2023-06-26T04:24:08;101000.63;;;27.70;42.99
78123;BME280;67376;44.802;10.332;2023-06-26T04:26:33;101007.91;;;28.00;42.35
78123;BME280;67376;44.802;10.332;2023-06-26T04:28:59;101009.22;;;28.12;41.47
78123;BME280;67376;44.802;10.332;2023-06-26T04:31:24;101011.19;;;27.97;42.15
78123;BME280;67376;44.802;10.332;2023-06-26T04:33:50;101016.53;;;27.57;42.87
78123;BME280;67376;44.802;10.332;2023-06-26T04:36:16;101010.97;;;27.83;42.52
78123;BME280;67376;44.802;10.332;2023-06-26T04:38:41;101017.91;;;27.70;43.10
78123;BME280;67376;44.802;10.332;2023-06-26T04:41:07;101012.13;;;27.56;43.17
78123;BME280;67376;44.802;10.332;2023-06-26T04:43:35;101007.47;;;27.52;43.46
78123;BME280;67376;44.802;10.332;2023-06-26T04:46:02;101015.63;;;27.82;42.69
78123;BME280;67376;44.802;10.332;2023-06-26T04:48:27;101012.63;;;27.84;42.43
78123;BME280;67376;44.802;10.332;2023-06-26T04:50:53;101010.53;;;27.35;43.71
78123;BME280;67376;44.802;10.332;2023-06-26T04:53:19;101014.91;;;27.31;43.87
78123;BME280;67376;44.802;10.332;2023-06-26T04:55:44;101012.72;;;27.28;43.89
78123;BME280;67376;44.802;10.332;2023-06-26T04:58:10;101010.56;;;27.05;44.64
78123;BME280;67376;44.802;10.332;2023-06-26T05:00:35;101014.66;;;27.02;44.50
78123;BME280;67376;44.802;10.332;2023-06-26T05:03:01;101013.81;;;27.17;44.76
78123;BME280;67376;44.802;10.332;2023-06-26T05:05:29;101013.81;;;27.27;44.27
78123;BME280;67376;44.802;10.332;2023-06-26T05:07:54;101016.78;;;27.56;43.54
78123;BME280;67376;44.802;10.332;2023-06-26T05:10:20;101014.88;;;27.72;42.85
78123;BME280;67376;44.802;10.332;2023-06-26T05:12:45;101021.69;;;27.79;43.16
78123;BME280;67376;44.802;10.332;2023-06-26T05:15:11;101017.84;;;27.80;43.08
78123;BME280;67376;44.802;10.332;2023-06-26T05:17:36;101021.19;;;27.67;43.00
78123;BME280;67376;44.802;10.332;2023-06-26T05:20:01;101030.81;;;27.49;43.36
78123;BME280;67376;44.802;10.332;2023-06-26T05:22:28;101026.44;;;27.23;44.02
78123;BME280;67376;44.802;10.332;2023-06-26T05:24:54;101029.16;;;27.28;44.14
78123;BME280;67376;44.802;10.332;2023-06-26T05:27:20;101029.13;;;27.58;43.38
78123;BME280;67376;44.802;10.332;2023-06-26T05:29:47;101032.44;;;27.66;43.07
78123;BME280;67376;44.802;10.332;2023-06-26T05:32:13;101026.69;;;27.52;43.42
78123;BME280;67376;44.802;10.332;2023-06-26T05:34:40;101021.22;;;27.42;43.74
78123;BME280;67376;44.802;10.332;2023-06-26T05:37:06;101035.19;;;27.66;43.50
78123;BME280;67376;44.802;10.332;2023-06-26T05:39:32;101032.66;;;27.74;43.22
78123;BME280;67376;44.802;10.332;2023-06-26T05:41:57;101025.59;;;27.63;43.74
78123;BME280;67376;44.802;10.332;2023-06-26T05:44:23;101029.69;;;27.71;43.37
78123;BME280;67376;44.802;10.332;2023-06-26T05:46:48;101032.66;;;27.79;43.15
78123;BME280;67376;44.802;10.332;2023-06-26T05:49:13;101021.13;;;27.82;43.22
78123;BME280;67376;44.802;10.332;2023-06-26T05:51:39;101025.22;;;27.90;43.25
78123;BME280;67376;44.802;10.332;2023-06-26T05:54:04;101025.22;;;27.95;42.70
78123;BME280;67376;44.802;10.332;2023-06-26T05:56:29;101027.13;;;28.00;42.85
78123;BME280;67376;44.802;10.332;2023-06-26T05:58:55;101030.94;;;28.04;42.45
78123;BME280;67376;44.802;10.332;2023-06-26T06:01:21;101030.38;;;28.07;42.09
78123;BME280;67376;44.802;10.332;2023-06-26T06:03:46;101033.66;;;28.09;42.57
78123;BME280;67376;44.802;10.332;2023-06-26T06:06:12;101027.63;;;28.12;42.23
78123;BME280;67376;44.802;10.332;2023-06-26T06:08:37;101033.66;;;28.14;41.91
78123;BME280;67376;44.802;10.332;2023-06-26T06:11:02;101024.84;;;28.17;41.84
78123;BME280;67376;44.802;10.332;2023-06-26T06:13:28;101033.91;;;28.17;42.20
78123;BME280;67376;44.802;10.332;2023-06-26T06:15:53;101027.03;;;28.20;41.87
78123;BME280;67376;44.802;10.332;2023-06-26T06:18:18;101031.41;;;28.21;41.55
78123;BME280;67376;44.802;10.332;2023-06-26T06:20:44;101029.25;;;28.23;41.75
78123;BME280;67376;44.802;10.332;2023-06-26T06:23:09;101026.22;;;28.24;41.27
78123;BME280;67376;44.802;10.332;2023-06-26T06:25:34;101022.38;;;28.25;41.56
78123;BME280;67376;44.802;10.332;2023-06-26T06:28:00;101029.50;;;28.26;41.30
78123;BME280;67376;44.802;10.332;2023-06-26T06:30:25;101025.94;;;28.26;41.76
78123;BME280;67376;44.802;10.332;2023-06-26T06:32:50;101042.97;;;28.28;41.22
78123;BME280;67376;44.802;10.332;2023-06-26T06:35:18;101022.63;;;28.29;41.42
78123;BME280;67376;44.802;10.332;2023-06-26T06:37:43;101026.19;;;28.30;41.28
78123;BME280;67376;44.802;10.332;2023-06-26T06:40:09;101024.78;;;28.32;41.54
78123;BME280;67376;44.802;10.332;2023-06-26T06:42:35;101029.44;;;28.32;41.44
78123;BME280;67376;44.802;10.332;2023-06-26T06:45:03;101025.31;;;28.34;40.89
78123;BME280;67376;44.802;10.332;2023-06-26T06:47:29;101029.72;;;28.35;41.26
78123;BME280;67376;44.802;10.332;2023-06-26T06:49:54;101026.97;;;28.35;40.80
78123;BME280;67376;44.802;10.332;2023-06-26T06:52:20;101026.69;;;28.37;41.57
78123;BME280;67376;44.802;10.332;2023-06-26T06:54:52;101021.19;;;28.37;40.75
78123;BME280;67376;44.802;10.332;2023-06-26T06:57:18;101027.50;;;28.37;41.04
78123;BME280;67376;44.802;10.332;2023-06-26T06:59:43;101034.63;;;28.38;41.40
78123;BME280;67376;44.802;10.332;2023-06-26T07:02:08;101029.69;;;28.40;40.97
78123;BME280;67376;44.802;10.332;2023-06-26T07:04:33;101034.91;;;28.42;40.91
78123;BME280;67376;44.802;10.332;2023-06-26T07:06:58;101036.81;;;28.41;40.73
78123;BME280;67376;44.802;10.332;2023-06-26T07:09:24;101032.97;;;28.42;41.28
78123;BME280;67376;44.802;10.332;2023-06-26T07:11:49;101026.38;;;28.43;40.63
78123;BME280;67376;44.802;10.332;2023-06-26T07:14:14;101035.44;;;28.44;40.85
78123;BME280;67376;44.802;10.332;2023-06-26T07:16:39;101029.94;;;28.44;40.71
78123;BME280;67376;44.802;10.332;2023-06-26T07:19:05;101028.84;;;28.45;41.09
78123;BME280;67376;44.802;10.332;2023-06-26T07:21:30;101024.16;;;28.45;41.04
78123;BME280;67376;44.802;10.332;2023-06-26T07:23:55;101022.25;;;28.46;41.34
78123;BME280;67376;44.802;10.332;2023-06-26T07:26:20;101021.94;;;28.47;40.86
78123;BME280;67376;44.802;10.332;2023-06-26T07:28:47;101017.28;;;28.48;41.37
78123;BME280;67376;44.802;10.332;2023-06-26T07:31:13;101017.28;;;28.48;40.65
78123;BME280;67376;44.802;10.332;2023-06-26T07:33:39;101022.50;;;28.49;41.30
78123;BME280;67376;44.802;10.332;2023-06-26T07:36:05;101023.31;;;28.50;40.92
78123;BME280;67376;44.802;10.332;2023-06-26T07:38:30;101015.59;;;28.52;41.40
78123;BME280;67376;44.802;10.332;2023-06-26T07:40:55;101010.13;;;28.52;40.77
78123;BME280;67376;44.802;10.332;2023-06-26T07:43:21;101020.00;;;28.53;41.26
78123;BME280;67376;44.802;10.332;2023-06-26T07:45:47;101021.66;;;28.54;41.02
78123;BME280;67376;44.802;10.332;2023-06-26T07:48:13;101020.53;;;28.55;41.01
78123;BME280;67376;44.802;10.332;2023-06-26T07:50:38;101023.28;;;28.55;40.75
78123;BME280;67376;44.802;10.332;2023-06-26T07:53:03;101018.63;;;28.55;41.40
78123;BME280;67376;44.802;10.332;2023-06-26T07:55:30;101020.25;;;28.56;40.74
78123;BME280;67376;44.802;10.332;2023-06-26T07:57:55;101021.91;;;28.57;40.69
78123;BME280;67376;44.802;10.332;2023-06-26T08:00:21;101017.22;;;28.58;41.42
78123;BME280;67376;44.802;10.332;2023-06-26T08:02:46;101020.78;;;28.58;40.67
78123;BME280;67376;44.802;10.332;2023-06-26T08:05:12;101019.69;;;28.59;41.42
78123;BME280;67376;44.802;10.332;2023-06-26T08:07:38;101016.13;;;28.59;41.08
78123;BME280;67376;44.802;10.332;2023-06-26T08:10:04;101009.50;;;28.60;41.42
78123;BME280;67376;44.802;10.332;2023-06-26T08:12:29;101015.84;;;28.60;41.54
78123;BME280;67376;44.802;10.332;2023-06-26T08:14:54;101016.66;;;28.61;41.54
78123;BME280;67376;44.802;10.332;2023-06-26T08:17:19;101021.88;;;28.63;41.09
78123;BME280;67376;44.802;10.332;2023-06-26T08:19:45;101022.69;;;28.63;40.82
78123;BME280;67376;44.802;10.332;2023-06-26T08:22:10;101017.19;;;28.63;41.42
78123;BME280;67376;44.802;10.332;2023-06-26T08:24:35;101015.25;;;28.64;40.90
78123;BME280;67376;44.802;10.332;2023-06-26T08:27:02;101025.16;;;28.65;41.12
78123;BME280;67376;44.802;10.332;2023-06-26T08:29:28;101020.75;;;28.64;41.22
78123;BME280;67376;44.802;10.332;2023-06-26T08:31:53;101017.72;;;28.65;41.18
78123;BME280;67376;44.802;10.332;2023-06-26T08:34:19;101011.41;;;28.65;40.66
78123;BME280;67376;44.802;10.332;2023-06-26T08:36:44;101023.22;;;28.65;40.91
78123;BME280;67376;44.802;10.332;2023-06-26T08:39:09;101013.88;;;28.66;40.93
78123;BME280;67376;44.802;10.332;2023-06-26T08:41:35;101008.38;;;28.66;40.68
78123;BME280;67376;44.802;10.332;2023-06-26T08:44:01;101009.19;;;28.67;41.08
78123;BME280;67376;44.802;10.332;2023-06-26T08:46:28;101006.44;;;28.67;41.26
78123;BME280;67376;44.802;10.332;2023-06-26T08:48:56;101007.28;;;28.67;40.65
78123;BME280;67376;44.802;10.332;2023-06-26T08:51:23;101000.66;;;28.68;41.26
78123;BME280;67376;44.802;10.332;2023-06-26T08:53:57;101006.16;;;28.68;41.24
78123;BME280;67376;44.802;10.332;2023-06-26T08:56:23;101010.56;;;28.69;40.66
78123;BME280;67376;44.802;10.332;2023-06-26T08:58:49;101002.31;;;28.69;40.48
78123;BME280;67376;44.802;10.332;2023-06-26T09:01:14;101005.88;;;28.70;40.70
78123;BME280;67376;44.802;10.332;2023-06-26T09:03:40;101005.88;;;28.70;41.27
78123;BME280;67376;44.802;10.332;2023-06-26T09:06:06;100999.56;;;28.69;40.63
78123;BME280;67376;44.802;10.332;2023-06-26T09:08:32;101000.38;;;28.70;40.52
78123;BME280;67376;44.802;10.332;2023-06-26T09:10:57;100995.72;;;28.70;40.97
78123;BME280;67376;44.802;10.332;2023-06-26T09:13:22;101000.09;;;28.71;39.97
78123;BME280;67376;44.802;10.332;2023-06-26T09:15:48;100997.34;;;28.71;41.11
78123;BME280;67376;44.802;10.332;2023-06-26T09:18:13;100994.59;;;28.71;40.18
78123;BME280;67376;44.802;10.332;2023-06-26T09:20:41;100996.25;;;28.72;40.84
78123;BME280;67376;44.802;10.332;2023-06-26T09:23:06;100994.31;;;28.73;40.43
78123;BME280;67376;44.802;10.332;2023-06-26T09:25:32;100994.31;;;28.73;40.45
78123;BME280;67376;44.802;10.332;2023-06-26T09:27:57;100985.25;;;28.72;40.43
78123;BME280;67376;44.802;10.332;2023-06-26T09:30:22;100986.06;;;28.73;40.00
78123;BME280;67376;44.802;10.332;2023-06-26T09:32:48;100983.03;;;28.74;40.40
78123;BME280;67376;44.802;10.332;2023-06-26T09:35:15;100988.53;;;28.74;40.13
78123;BME280;67376;44.802;10.332;2023-06-26T09:37:41;100977.25;;;28.76;40.62
78123;BME280;67376;44.802;10.332;2023-06-26T09:40:06;100974.50;;;28.76;40.28
78123;BME280;67376;44.802;10.332;2023-06-26T09:42:32;100973.41;;;28.77;40.21
78123;BME280;67376;44.802;10.332;2023-06-26T09:44:57;100972.59;;;28.76;39.73
78123;BME280;67376;44.802;10.332;2023-06-26T09:47:23;100969.84;;;28.76;39.51
78123;BME280;67376;44.802;10.332;2023-06-26T09:49:48;100963.22;;;28.77;40.04
78123;BME280;67376;44.802;10.332;2023-06-26T09:52:17;100960.47;;;28.77;39.87
78123;BME280;67376;44.802;10.332;2023-06-26T09:54:43;100960.47;;;28.77;40.27
78123;BME280;67376;44.802;10.332;2023-06-26T09:57:13;100956.63;;;28.78;39.95
78123;BME280;67376;44.802;10.332;2023-06-26T09:59:41;100970.66;;;28.77;39.70
78123;BME280;67376;44.802;10.332;2023-06-26T10:02:07;100952.25;;;28.77;39.21
78123;BME280;67376;44.802;10.332;2023-06-26T10:04:33;100962.13;;;28.78;39.52
78123;BME280;67376;44.802;10.332;2023-06-26T10:06:58;100956.63;;;28.78;39.68
78123;BME280;67376;44.802;10.332;2023-06-26T10:09:26;100951.94;;;28.79;39.69
78123;BME280;67376;44.802;10.332;2023-06-26T10:11:56;100956.63;;;28.78;39.38
78123;BME280;67376;44.802;10.332;2023-06-26T10:14:23;100953.59;;;28.80;39.19
78123;BME280;67376;44.802;10.332;2023-06-26T10:16:51;100949.72;;;28.81;39.45
78123;BME280;67376;44.802;10.332;2023-06-26T10:19:17;100952.22;;;28.82;39.09
78123;BME280;67376;44.802;10.332;2023-06-26T10:21:46;100949.47;;;28.82;39.68
78123;BME280;67376;44.802;10.332;2023-06-26T10:24:11;100945.63;;;28.83;39.29
78123;BME280;67376;44.802;10.332;2023-06-26T10:26:38;100955.50;;;28.84;39.64
78123;BME280;67376;44.802;10.332;2023-06-26T10:29:07;100946.44;;;28.84;40.17
78123;BME280;67376;44.802;10.332;2023-06-26T10:31:32;100954.69;;;28.84;39.45
78123;BME280;67376;44.802;10.332;2023-06-26T10:33:59;100948.81;;;28.90;39.30
78123;BME280;67376;44.802;10.332;2023-06-26T10:36:29;100949.06;;;28.94;40.63
78123;BME280;67376;44.802;10.332;2023-06-26T10:38:55;100948.25;;;28.93;41.85
78123;BME280;67376;44.802;10.332;2023-06-26T10:41:22;100942.50;;;28.90;41.38
78123;BME280;67376;44.802;10.332;2023-06-26T10:44:06;100943.13;;;28.87;40.24
78123;BME280;67376;44.802;10.332;2023-06-26T10:46:33;100948.09;;;28.85;40.45
78123;BME280;67376;44.802;10.332;2023-06-26T10:49:00;100943.69;;;28.84;40.34
78123;BME280;67376;44.802;10.332;2023-06-26T10:51:27;100948.38;;;28.83;40.26
78123;BME280;67376;44.802;10.332;2023-06-26T10:53:55;100943.16;;;28.82;40.35
78123;BME280;67376;44.802;10.332;2023-06-26T10:56:21;100940.41;;;28.82;40.38
78123;BME280;67376;44.802;10.332;2023-06-26T10:58:47;100940.41;;;28.82;40.47
78123;BME280;67376;44.802;10.332;2023-06-26T11:03:46;100935.16;;;28.80;39.89
78123;BME280;67376;44.802;10.332;2023-06-26T11:06:17;100937.91;;;28.80;40.44
78123;BME280;67376;44.802;10.332;2023-06-26T11:11:14;100932.44;;;28.80;39.96
78123;BME280;67376;44.802;10.332;2023-06-26T11:13:39;100924.19;;;28.80;40.06
78123;BME280;67376;44.802;10.332;2023-06-26T11:16:05;100915.13;;;28.80;39.66
78123;BME280;67376;44.802;10.332;2023-06-26T11:18:31;100924.47;;;28.79;39.60
78123;BME280;67376;44.802;10.332;2023-06-26T11:23:59;100929.97;;;28.79;40.15
78123;BME280;67376;44.802;10.332;2023-06-26T11:26:27;100915.13;;;28.80;40.33
78123;BME280;67376;44.802;10.332;2023-06-26T11:28:55;100917.56;;;28.81;39.36
78123;BME280;67376;44.802;10.332;2023-06-26T11:33:49;100921.44;;;28.80;39.98
78123;BME280;67376;44.802;10.332;2023-06-26T11:36:15;100919.78;;;28.79;40.06
78123;BME280;67376;44.802;10.332;2023-06-26T11:38:40;100921.44;;;28.80;39.90
78123;BME280;67376;44.802;10.332;2023-06-26T11:41:05;100914.28;;;28.79;39.75
78123;BME280;67376;44.802;10.332;2023-06-26T11:43:33;100915.13;;;28.80;39.46
78123;BME280;67376;44.802;10.332;2023-06-26T11:45:58;100914.28;;;28.79;39.76
78123;BME280;67376;44.802;10.332;2023-06-26T11:48:25;100906.03;;;28.79;39.67
78123;BME280;67376;44.802;10.332;2023-06-26T11:50:50;100903.31;;;28.79;39.82
78123;BME280;67376;44.802;10.332;2023-06-26T11:53:19;100907.69;;;28.80;39.70
78123;BME280;67376;44.802;10.332;2023-06-26T11:55:44;100907.16;;;28.78;39.80
78123;BME280;67376;44.802;10.332;2023-06-26T11:58:10;100904.41;;;28.78;39.38
78123;BME280;67376;44.802;10.332;2023-06-26T12:00:35;100908.78;;;28.79;39.44
78123;BME280;67376;44.802;10.332;2023-06-26T12:03:00;100906.88;;;28.80;39.49
78123;BME280;67376;44.802;10.332;2023-06-26T12:05:26;100900.56;;;28.79;39.29
78123;BME280;67376;44.802;10.332;2023-06-26T12:07:51;100899.72;;;28.79;39.45
78123;BME280;67376;44.802;10.332;2023-06-26T12:10:16;100895.34;;;28.78;39.28
78123;BME280;67376;44.802;10.332;2023-06-26T12:12:42;100903.59;;;28.78;39.38
78123;BME280;67376;44.802;10.332;2023-06-26T12:15:08;100894.53;;;28.77;39.02
78123;BME280;67376;44.802;10.332;2023-06-26T12:17:37;100901.66;;;28.78;39.43
78123;BME280;67376;44.802;10.332;2023-06-26T12:20:02;100885.16;;;28.78;38.67
78123;BME280;67376;44.802;10.332;2023-06-26T12:22:33;100889.84;;;28.78;39.03
78123;BME280;67376;44.802;10.332;2023-06-26T12:24:59;100878.84;;;28.78;39.41
78123;BME280;67376;44.802;10.332;2023-06-26T12:27:24;100884.34;;;28.78;38.81
78123;BME280;67376;44.802;10.332;2023-06-26T12:29:53;100887.09;;;28.78;38.78
78123;BME280;67376;44.802;10.332;2023-06-26T12:32:18;100884.34;;;28.78;38.48
78123;BME280;67376;44.802;10.332;2023-06-26T12:34:46;100884.34;;;28.78;38.43
78123;BME280;67376;44.802;10.332;2023-06-26T12:37:12;100873.34;;;28.78;38.98
78123;BME280;67376;44.802;10.332;2023-06-26T12:42:13;100884.34;;;28.78;39.08
78123;BME280;67376;44.802;10.332;2023-06-26T12:44:38;100884.34;;;28.78;38.76
78123;BME280;67376;44.802;10.332;2023-06-26T12:47:04;100878.03;;;28.77;38.96
78123;BME280;67376;44.802;10.332;2023-06-26T12:51:57;100876.09;;;28.78;38.62